createdAt,value
2023-12-27T00:00:36.365Z,6.500
2023-12-27T00:01:37.062Z,5.600
2023-12-27T00:02:37.480Z,5.900
2023-12-27T00:03:36.883Z,5.300
2023-12-27T00:04:37.015Z,5.500
2023-12-27T00:05:36.369Z,5.500
2023-12-27T00:06:36.953Z,5.300
2023-12-27T00:07:36.014Z,5.500
2023-12-27T00:08:35.985Z,5.000
2023-12-27T00:09:36.326Z,4.500
2023-12-27T00:10:36.488Z,5.000
2023-12-27T00:11:36.475Z,5.200
2023-12-27T00:12:37.020Z,4.400
2023-12-27T00:13:36.026Z,5.300
2023-12-27T00:14:35.865Z,4.600
2023-12-27T00:15:37.324Z,5.000
2023-12-27T00:16:36.197Z,5.200
2023-12-27T00:17:36.203Z,4.700
2023-12-27T00:18:36.942Z,4.900
2023-12-27T00:19:37.108Z,4.200
2023-12-27T00:20:36.209Z,4.700
2023-12-27T00:21:36.247Z,4.800
2023-12-27T00:22:36.257Z,5.100
2023-12-27T00:23:36.223Z,5.600
2023-12-27T00:24:36.562Z,5.000
2023-12-27T00:25:36.728Z,4.800
2023-12-27T00:26:36.652Z,5.400
2023-12-27T00:27:36.992Z,5.300
2023-12-27T00:28:36.009Z,5.800
2023-12-27T00:29:35.833Z,5.800
2023-12-27T00:31:36.309Z,5.200
2023-12-27T00:32:36.862Z,5.300
2023-12-27T00:33:37.276Z,5.300
2023-12-27T00:34:37.324Z,5.600
2023-12-27T00:35:36.561Z,6.400
2023-12-27T00:36:37.990Z,5.700
2023-12-27T00:37:36.012Z,5.600
2023-12-27T00:38:35.865Z,5.400
2023-12-27T00:39:37.134Z,5.800
2023-12-27T00:40:36.185Z,6.400
2023-12-27T00:41:36.195Z,5.200
2023-12-27T00:42:37.114Z,5.400
2023-12-27T00:43:36.172Z,5.300
2023-12-27T00:44:36.155Z,5.200
2023-12-27T00:45:36.472Z,4.900
2023-12-27T00:46:36.486Z,5.600
2023-12-27T00:47:36.873Z,5.400
2023-12-27T00:48:36.446Z,4.700
2023-12-27T00:49:37.171Z,5.400
2023-12-27T00:50:36.201Z,5.500
2023-12-27T00:51:36.358Z,5.100
2023-12-27T00:52:36.406Z,5.100
2023-12-27T00:53:36.245Z,5.500
2023-12-27T00:54:36.310Z,5.000
2023-12-27T00:55:36.923Z,6.000
2023-12-27T00:56:35.930Z,5.500
2023-12-27T00:57:36.016Z,5.400
2023-12-27T00:58:35.931Z,5.400
2023-12-27T00:59:36.802Z,4.700
2023-12-27T01:00:37.526Z,5.800
2023-12-27T01:01:36.243Z,5.200
2023-12-27T01:02:36.058Z,5.100
2023-12-27T01:03:36.344Z,5.400
2023-12-27T01:04:37.400Z,5.600
2023-12-27T01:05:36.435Z,5.500
2023-12-27T01:06:36.618Z,5.400
2023-12-27T01:07:36.631Z,5.400
2023-12-27T01:08:36.468Z,5.500
2023-12-27T01:09:37.217Z,5.300
2023-12-27T01:10:36.277Z,6.300
2023-12-27T01:11:36.186Z,5.600
2023-12-27T01:12:36.952Z,6.100
2023-12-27T01:13:35.864Z,5.800
2023-12-27T01:14:36.793Z,5.000
2023-12-27T01:15:37.087Z,4.500
2023-12-27T01:16:36.117Z,6.100
2023-12-27T01:17:36.328Z,5.000
2023-12-27T01:18:37.432Z,5.200
2023-12-27T01:20:36.136Z,5.800
2023-12-27T01:21:36.569Z,6.600
2023-12-27T01:22:36.723Z,6.000
2023-12-27T01:23:36.638Z,6.300
2023-12-27T01:24:36.866Z,6.400
2023-12-27T01:25:35.905Z,6.300
2023-12-27T01:26:36.856Z,5.900
2023-12-27T01:27:37.225Z,6.000
2023-12-27T01:28:36.152Z,6.000
2023-12-27T01:29:35.959Z,5.500
2023-12-27T01:30:36.368Z,5.800
2023-12-27T01:31:36.830Z,5.000
2023-12-27T01:32:36.261Z,5.500
2023-12-27T01:33:37.327Z,5.000
2023-12-27T01:34:41.664Z,5.300
2023-12-27T01:35:36.728Z,5.800
2023-12-27T01:36:36.899Z,5.200
2023-12-27T01:37:35.772Z,5.300
2023-12-27T01:38:36.610Z,6.300
2023-12-27T01:39:36.964Z,6.200
2023-12-27T01:40:35.917Z,6.100
2023-12-27T01:41:36.856Z,5.800
2023-12-27T01:42:36.992Z,5.300
2023-12-27T01:43:35.982Z,5.400
2023-12-27T01:44:35.784Z,5.900
2023-12-27T01:45:37.205Z,5.800
2023-12-27T01:46:36.299Z,5.100
2023-12-27T01:47:36.510Z,5.700
2023-12-27T01:48:37.636Z,5.800
2023-12-27T01:49:36.526Z,5.700
2023-12-27T01:50:36.675Z,5.500
2023-12-27T01:51:37.213Z,5.700
2023-12-27T01:52:36.296Z,5.200
2023-12-27T01:53:36.225Z,5.600
2023-12-27T01:54:36.446Z,5.500
2023-12-27T01:55:36.533Z,5.200
2023-12-27T01:56:36.474Z,5.300
2023-12-27T01:57:36.964Z,6.200
2023-12-27T01:58:36.303Z,5.600
2023-12-27T01:59:36.197Z,5.800
2023-12-27T02:00:36.705Z,4.600
2023-12-27T02:01:37.022Z,5.700
2023-12-27T02:02:35.955Z,6.000
2023-12-27T02:03:37.439Z,5.900
2023-12-27T02:04:37.018Z,5.600
2023-12-27T02:05:36.253Z,5.900
2023-12-27T02:06:36.531Z,5.700
2023-12-27T02:07:41.434Z,5.800
2023-12-27T02:08:36.260Z,5.400
2023-12-27T02:09:36.698Z,5.600
2023-12-27T02:11:36.425Z,5.300
2023-12-27T02:12:36.914Z,5.900
2023-12-27T02:13:35.878Z,6.400
2023-12-27T02:14:36.861Z,6.200
2023-12-27T02:15:37.110Z,6.400
2023-12-27T02:16:36.271Z,6.500
2023-12-27T02:17:36.531Z,6.400
2023-12-27T02:18:37.432Z,5.900
2023-12-27T02:19:37.106Z,5.900
2023-12-27T02:20:36.083Z,6.000
2023-12-27T02:21:36.404Z,5.900
2023-12-27T02:22:36.508Z,6.000
2023-12-27T02:23:36.442Z,6.200
2023-12-27T02:24:36.760Z,6.400
2023-12-27T02:26:36.662Z,5.600
2023-12-27T02:27:36.941Z,5.000
2023-12-27T02:28:37.010Z,5.100
2023-12-27T02:29:36.026Z,5.800
2023-12-27T02:30:36.413Z,5.900
2023-12-27T02:31:37.144Z,5.800
2023-12-27T02:32:36.325Z,5.200
2023-12-27T02:33:38.189Z,5.500
2023-12-27T02:34:37.141Z,6.300
2023-12-27T02:35:37.003Z,6.200
2023-12-27T02:36:36.375Z,5.700
2023-12-27T02:37:36.531Z,5.900
2023-12-27T02:38:36.662Z,4.900
2023-12-27T02:39:36.991Z,6.000
2023-12-27T02:40:35.971Z,5.900
2023-12-27T02:41:36.063Z,5.600
2023-12-27T02:42:36.124Z,5.500
2023-12-27T02:44:35.978Z,5.500
2023-12-27T02:45:36.191Z,5.400
2023-12-27T02:47:36.177Z,5.800
2023-12-27T02:48:37.239Z,5.900
2023-12-27T02:49:37.263Z,5.200
2023-12-27T02:50:36.269Z,6.000
2023-12-27T02:51:36.540Z,5.700
2023-12-27T02:52:36.372Z,5.700
2023-12-27T02:54:36.668Z,5.900
2023-12-27T02:55:36.528Z,5.400
2023-12-27T02:58:36.283Z,5.800
2023-12-27T02:59:36.265Z,6.000
2023-12-27T03:00:36.634Z,6.200
2023-12-27T03:01:36.000Z,5.400
2023-12-27T03:02:36.366Z,5.400
2023-12-27T03:03:37.217Z,6.500
2023-12-27T03:04:37.001Z,5.600
2023-12-27T03:05:36.510Z,5.700
2023-12-27T03:06:37.240Z,5.500
2023-12-27T03:07:36.289Z,6.700
2023-12-27T03:08:36.236Z,7.300
2023-12-27T03:09:36.327Z,6.600
2023-12-27T03:11:36.185Z,6.500
2023-12-27T03:12:36.447Z,6.300
2023-12-27T03:14:36.238Z,6.500
2023-12-27T03:15:36.513Z,7.000
2023-12-27T03:16:36.618Z,6.500
2023-12-27T03:17:36.761Z,6.600
2023-12-27T03:18:37.529Z,6.000
2023-12-27T03:19:37.212Z,6.400
2023-12-27T03:20:36.135Z,6.700
2023-12-27T03:21:36.201Z,6.200
2023-12-27T03:23:35.925Z,6.100
2023-12-27T03:24:37.327Z,6.600
2023-12-27T03:25:36.236Z,6.800
2023-12-27T03:26:36.081Z,6.100
2023-12-27T03:27:36.198Z,5.500
2023-12-27T03:28:36.143Z,5.100
2023-12-27T03:29:36.004Z,6.300
2023-12-27T03:30:36.665Z,5.700
2023-12-27T03:31:37.209Z,6.100
2023-12-27T03:32:36.516Z,5.900
2023-12-27T03:33:37.464Z,6.200
2023-12-27T03:34:37.958Z,6.200
2023-12-27T03:35:36.018Z,6.500
2023-12-27T03:36:36.269Z,6.300
2023-12-27T03:37:36.431Z,6.100
2023-12-27T03:38:36.379Z,5.900
2023-12-27T03:39:36.828Z,7.200
2023-12-27T03:40:36.020Z,7.600
2023-12-27T03:41:36.054Z,7.000
2023-12-27T03:42:36.474Z,6.600
2023-12-27T03:43:36.627Z,6.300
2023-12-27T03:44:36.588Z,6.100
2023-12-27T03:45:36.920Z,5.900
2023-12-27T03:46:36.220Z,6.300
2023-12-27T03:47:36.502Z,6.600
2023-12-27T03:48:37.544Z,5.900
2023-12-27T03:50:36.464Z,5.900
2023-12-27T03:51:36.990Z,6.100
2023-12-27T03:52:36.023Z,6.700
2023-12-27T03:53:36.665Z,6.300
2023-12-27T03:54:37.247Z,6.100
2023-12-27T03:55:36.245Z,5.600
2023-12-27T03:56:36.028Z,6.000
2023-12-27T03:57:36.498Z,5.800
2023-12-27T03:59:36.210Z,5.900
2023-12-27T04:00:36.556Z,6.000
2023-12-27T04:01:36.761Z,5.700
2023-12-27T04:02:36.958Z,6.600
2023-12-27T04:03:39.134Z,6.600
2023-12-27T04:05:36.416Z,6.500
2023-12-27T04:06:36.572Z,6.400
2023-12-27T04:07:36.635Z,6.700
2023-12-27T04:08:36.433Z,6.300
2023-12-27T04:09:36.531Z,6.400
2023-12-27T04:10:36.675Z,6.500
2023-12-27T04:11:36.505Z,6.100
2023-12-27T04:12:37.253Z,5.800
2023-12-27T04:13:36.654Z,6.500
2023-12-27T04:14:36.576Z,6.600
2023-12-27T04:15:36.845Z,6.500
2023-12-27T04:17:36.527Z,5.900
2023-12-27T04:18:37.767Z,5.800
2023-12-27T04:19:36.449Z,6.500
2023-12-27T04:20:36.666Z,6.500
2023-12-27T04:21:37.158Z,6.500
2023-12-27T04:22:36.182Z,7.100
2023-12-27T04:23:36.176Z,6.300
2023-12-27T04:24:36.624Z,7.000
2023-12-27T04:25:36.616Z,7.400
2023-12-27T04:26:36.631Z,7.400
2023-12-27T04:27:36.965Z,6.600
2023-12-27T04:29:36.808Z,6.100
2023-12-27T04:30:37.234Z,6.400
2023-12-27T04:31:36.220Z,6.400
2023-12-27T04:32:36.099Z,6.800
2023-12-27T04:33:36.668Z,6.000
2023-12-27T04:34:37.330Z,6.100
2023-12-27T04:35:36.387Z,6.000
2023-12-27T04:36:36.374Z,6.700
2023-12-27T04:37:36.556Z,6.200
2023-12-27T04:38:36.583Z,6.700
2023-12-27T04:39:36.732Z,5.500
2023-12-27T04:41:36.422Z,6.500
2023-12-27T04:42:36.799Z,6.100
2023-12-27T04:45:36.934Z,5.600
2023-12-27T04:46:36.021Z,5.600
2023-12-27T04:47:36.303Z,6.600
2023-12-27T04:48:37.061Z,6.700
2023-12-27T04:49:37.410Z,7.200
2023-12-27T04:50:36.462Z,7.100
2023-12-27T04:51:39.482Z,7.800
2023-12-27T04:52:36.677Z,8.600
2023-12-27T04:53:36.608Z,8.500
2023-12-27T04:54:37.216Z,7.300
2023-12-27T04:55:36.243Z,7.900
2023-12-27T04:56:36.201Z,8.100
2023-12-27T04:57:36.572Z,7.900
2023-12-27T04:58:36.631Z,7.600
2023-12-27T04:59:36.584Z,8.400
2023-12-27T05:00:37.331Z,7.700
2023-12-27T05:01:36.562Z,7.300
2023-12-27T05:02:36.531Z,6.800
2023-12-27T05:03:36.797Z,7.300
2023-12-27T05:04:36.424Z,7.400
2023-12-27T05:05:36.623Z,6.900
2023-12-27T05:06:36.421Z,7.200
2023-12-27T05:08:36.193Z,6.800
2023-12-27T05:09:36.242Z,6.800
2023-12-27T05:10:36.083Z,7.100
2023-12-27T05:11:36.542Z,7.100
2023-12-27T05:12:36.729Z,6.900
2023-12-27T05:13:36.741Z,6.700
2023-12-27T05:14:36.592Z,6.500
2023-12-27T05:15:36.857Z,6.600
2023-12-27T05:16:35.750Z,7.300
2023-12-27T05:17:36.965Z,7.200
2023-12-27T05:18:36.252Z,7.400
2023-12-27T05:19:36.844Z,6.400
2023-12-27T05:21:37.160Z,7.400
2023-12-27T05:22:36.055Z,7.600
2023-12-27T05:23:35.905Z,7.400
2023-12-27T05:24:37.020Z,7.500
2023-12-27T05:25:36.173Z,7.700
2023-12-27T05:26:36.113Z,7.900
2023-12-27T05:27:36.292Z,7.700
2023-12-27T05:28:36.367Z,8.600
2023-12-27T05:29:38.551Z,7.500
2023-12-27T05:30:37.260Z,8.100
2023-12-27T05:31:36.803Z,8.100
2023-12-27T05:33:37.438Z,8.600
2023-12-27T05:34:37.524Z,9.100
2023-12-27T05:35:36.570Z,8.600
2023-12-27T05:36:36.983Z,8.400
2023-12-27T05:37:36.121Z,8.600
2023-12-27T05:38:36.177Z,9.000
2023-12-27T05:39:36.539Z,9.000
2023-12-27T05:40:36.617Z,9.200
2023-12-27T05:41:36.684Z,8.000
2023-12-27T05:42:37.268Z,8.600
2023-12-27T05:43:36.160Z,8.700
2023-12-27T05:44:36.026Z,8.200
2023-12-27T05:45:35.960Z,8.700
2023-12-27T05:48:37.433Z,8.700
2023-12-27T05:49:37.154Z,8.700
2023-12-27T05:50:36.160Z,8.400
2023-12-27T05:51:36.417Z,9.000
2023-12-27T05:52:36.520Z,8.700
2023-12-27T05:53:36.382Z,9.400
2023-12-27T05:54:37.029Z,9.200
2023-12-27T05:55:36.018Z,8.600
2023-12-27T05:56:35.831Z,9.100
2023-12-27T05:57:37.005Z,8.700
2023-12-27T05:58:35.879Z,9.100
2023-12-27T05:59:36.906Z,9.300
2023-12-27T06:00:36.260Z,8.200
2023-12-27T06:01:36.743Z,7.800
2023-12-27T06:02:36.774Z,8.300
2023-12-27T06:03:37.426Z,7.800
2023-12-27T06:04:36.426Z,7.800
2023-12-27T06:05:37.332Z,8.600
2023-12-27T06:06:36.628Z,7.700
2023-12-27T06:07:36.673Z,7.900
2023-12-27T06:09:36.751Z,8.400
2023-12-27T06:11:36.644Z,8.300
2023-12-27T06:12:36.886Z,8.600
2023-12-27T06:13:36.855Z,7.900
2023-12-27T06:14:36.783Z,8.400
2023-12-27T06:15:37.016Z,7.800
2023-12-27T06:16:36.018Z,8.300
2023-12-27T06:17:35.978Z,8.100
2023-12-27T06:18:36.615Z,7.800
2023-12-27T06:19:38.073Z,7.800
2023-12-27T06:20:36.066Z,7.900
2023-12-27T06:21:36.056Z,8.900
2023-12-27T06:22:36.024Z,7.900
2023-12-27T06:23:35.939Z,8.400
2023-12-27T06:24:36.086Z,8.300
2023-12-27T06:25:36.057Z,9.000
2023-12-27T06:26:35.917Z,9.100
2023-12-27T06:27:36.091Z,8.900
2023-12-27T06:28:36.082Z,8.700
2023-12-27T06:29:35.916Z,7.800
2023-12-27T06:30:37.621Z,8.700
2023-12-27T06:32:36.662Z,8.500
2023-12-27T06:33:37.544Z,9.100
2023-12-27T06:34:37.049Z,7.800
2023-12-27T06:35:36.060Z,8.600
2023-12-27T06:36:36.156Z,8.500
2023-12-27T06:37:40.101Z,8.400
2023-12-27T06:38:35.976Z,8.200
2023-12-27T06:39:35.986Z,7.800
2023-12-27T06:40:36.095Z,8.400
2023-12-27T06:41:36.167Z,8.600
2023-12-27T06:42:36.520Z,7.800
2023-12-27T06:43:39.903Z,8.800
2023-12-27T06:45:36.947Z,8.200
2023-12-27T06:46:36.114Z,8.000
2023-12-27T06:47:36.195Z,8.900
2023-12-27T06:48:37.430Z,8.700
2023-12-27T06:49:37.689Z,8.300
2023-12-27T06:50:36.833Z,8.400
2023-12-27T06:51:37.218Z,8.800
2023-12-27T06:52:36.280Z,8.300
2023-12-27T06:53:36.247Z,8.400
2023-12-27T06:54:36.547Z,8.700
2023-12-27T06:55:36.770Z,8.500
2023-12-27T06:56:36.645Z,8.300
2023-12-27T06:57:36.876Z,8.000
2023-12-27T06:58:36.090Z,8.800
2023-12-27T06:59:35.855Z,7.700
2023-12-27T07:00:37.091Z,8.500
2023-12-27T07:01:36.232Z,7.600
2023-12-27T07:02:36.459Z,8.800
2023-12-27T07:03:37.126Z,8.800
2023-12-27T07:04:36.342Z,8.100
2023-12-27T07:05:36.963Z,8.200
2023-12-27T07:06:36.111Z,9.100
2023-12-27T07:07:36.520Z,9.200
2023-12-27T07:08:36.360Z,9.100
2023-12-27T07:09:36.569Z,9.400
2023-12-27T07:10:36.601Z,8.900
2023-12-27T07:11:36.455Z,9.300
2023-12-27T07:12:36.576Z,8.900
2023-12-27T07:13:36.638Z,9.100
2023-12-27T07:14:36.499Z,9.500
2023-12-27T07:15:36.898Z,8.900
2023-12-27T07:16:35.824Z,8.600
2023-12-27T07:17:37.101Z,8.100
2023-12-27T07:19:37.637Z,9.600
2023-12-27T07:20:36.832Z,9.000
2023-12-27T07:21:36.898Z,9.700
2023-12-27T07:22:39.747Z,9.700
2023-12-27T07:23:36.594Z,9.100
2023-12-27T07:24:37.153Z,8.800
2023-12-27T07:25:36.158Z,10.600
2023-12-27T07:26:36.084Z,10.100
2023-12-27T07:27:36.327Z,9.100
2023-12-27T07:28:36.414Z,9.600
2023-12-27T07:29:36.348Z,10.600
2023-12-27T07:30:36.823Z,9.900
2023-12-27T07:31:36.289Z,9.800
2023-12-27T07:32:36.663Z,10.100
2023-12-27T07:33:37.026Z,10.000
2023-12-27T07:34:36.953Z,9.600
2023-12-27T07:35:35.990Z,9.100
2023-12-27T07:36:35.958Z,9.000
2023-12-27T07:39:37.161Z,10.600
2023-12-27T07:40:36.185Z,10.100
2023-12-27T07:41:36.015Z,12.300
2023-12-27T07:42:35.973Z,15.500
2023-12-27T07:43:35.823Z,13.600
2023-12-27T07:44:36.695Z,15.200
2023-12-27T07:45:36.774Z,11.600
2023-12-27T07:46:35.842Z,10.400
2023-12-27T07:47:36.904Z,11.900
2023-12-27T07:48:36.430Z,10.800
2023-12-27T07:49:37.270Z,10.500
2023-12-27T07:50:36.315Z,10.000
2023-12-27T07:51:36.640Z,11.400
2023-12-27T07:52:36.892Z,11.700
2023-12-27T07:53:36.949Z,11.500
2023-12-27T07:55:36.145Z,12.200
2023-12-27T07:56:36.144Z,11.000
2023-12-27T07:57:36.429Z,11.100
2023-12-27T07:58:36.462Z,12.200
2023-12-27T07:59:36.484Z,12.500
2023-12-27T08:00:36.976Z,12.800
2023-12-27T08:01:37.754Z,12.600
2023-12-27T08:02:36.793Z,11.300
2023-12-27T08:03:37.171Z,12.100
2023-12-27T08:04:36.732Z,11.700
2023-12-27T08:06:40.692Z,10.800
2023-12-27T08:07:36.757Z,11.600
2023-12-27T08:08:36.640Z,11.800
2023-12-27T08:09:37.036Z,11.800
2023-12-27T08:10:35.963Z,11.700
2023-12-27T08:11:35.837Z,12.300
2023-12-27T08:12:36.999Z,12.400
2023-12-27T08:13:36.389Z,11.300
2023-12-27T08:14:36.295Z,11.400
2023-12-27T08:15:36.421Z,10.100
2023-12-27T08:16:36.376Z,10.900
2023-12-27T08:17:36.432Z,11.500
2023-12-27T08:18:37.106Z,12.100
2023-12-27T08:21:36.841Z,11.900
2023-12-27T08:22:36.733Z,11.000
2023-12-27T08:23:36.585Z,11.300
2023-12-27T08:24:36.606Z,10.200
2023-12-27T08:25:36.714Z,9.600
2023-12-27T08:26:36.534Z,9.800
2023-12-27T08:27:36.788Z,9.900
2023-12-27T08:29:38.086Z,9.800
2023-12-27T08:30:37.410Z,9.800
2023-12-27T08:31:37.046Z,9.800
2023-12-27T08:32:36.145Z,10.000
2023-12-27T08:33:36.663Z,10.200
2023-12-27T08:34:37.316Z,10.600
2023-12-27T08:35:36.394Z,10.100
2023-12-27T08:36:36.681Z,10.200
2023-12-27T08:37:35.947Z,10.100
2023-12-27T08:38:36.580Z,10.000
2023-12-27T08:39:36.826Z,10.100
2023-12-27T08:40:36.894Z,10.700
2023-12-27T08:41:36.829Z,10.000
2023-12-27T08:42:37.028Z,10.600
2023-12-27T08:43:36.152Z,10.100
2023-12-27T08:44:36.085Z,9.900
2023-12-27T08:45:36.312Z,9.700
2023-12-27T08:48:37.721Z,10.300
2023-12-27T08:49:36.595Z,10.700
2023-12-27T08:50:35.830Z,9.700
2023-12-27T08:51:36.990Z,10.500
2023-12-27T08:52:35.817Z,11.000
2023-12-27T08:53:36.684Z,10.600
2023-12-27T08:54:36.752Z,9.500
2023-12-27T08:55:36.792Z,10.500
2023-12-27T08:56:36.700Z,10.000
2023-12-27T08:57:40.535Z,10.300
2023-12-27T08:58:36.513Z,9.000
2023-12-27T09:00:36.455Z,10.100
2023-12-27T09:01:36.757Z,9.700
2023-12-27T09:03:37.335Z,9.000
2023-12-27T09:04:37.014Z,12.300
2023-12-27T09:05:36.197Z,12.000
2023-12-27T09:06:36.894Z,9.900
2023-12-27T09:07:36.083Z,10.500
2023-12-27T09:08:36.025Z,11.100
2023-12-27T09:09:36.230Z,10.200
2023-12-27T09:10:36.473Z,9.700
2023-12-27T09:11:48.289Z,9.200
2023-12-27T09:13:36.391Z,8.600
2023-12-27T09:14:36.342Z,8.800
2023-12-27T09:15:36.647Z,8.600
2023-12-27T09:16:36.786Z,9.100
2023-12-27T09:17:36.947Z,9.300
2023-12-27T09:18:36.714Z,10.200
2023-12-27T09:19:37.356Z,8.800
2023-12-27T09:20:36.451Z,8.800
2023-12-27T09:21:37.407Z,8.800
2023-12-27T09:22:36.673Z,8.400
2023-12-27T09:23:36.659Z,8.300
2023-12-27T09:24:36.776Z,8.500
2023-12-27T09:25:36.909Z,8.900
2023-12-27T09:26:36.126Z,9.100
2023-12-27T09:27:36.085Z,9.000
2023-12-27T09:29:35.852Z,9.100
2023-12-27T09:30:37.445Z,9.200
2023-12-27T09:31:37.410Z,9.800
2023-12-27T09:32:37.391Z,8.500
2023-12-27T09:33:37.037Z,8.900
2023-12-27T09:35:35.935Z,9.400
2023-12-27T09:36:36.187Z,9.700
2023-12-27T09:37:36.247Z,9.200
2023-12-27T09:40:36.267Z,8.700
2023-12-27T09:41:36.581Z,8.000
2023-12-27T09:42:37.076Z,7.700
2023-12-27T09:43:36.217Z,8.000
2023-12-27T09:44:36.112Z,8.300
2023-12-27T09:45:36.231Z,8.000
2023-12-27T09:47:36.467Z,7.600
2023-12-27T09:48:37.302Z,8.200
2023-12-27T09:49:37.232Z,8.200
2023-12-27T09:50:36.433Z,7.200
2023-12-27T09:51:36.797Z,6.700
2023-12-27T09:52:36.013Z,6.900
2023-12-27T09:53:36.029Z,7.000
2023-12-27T09:54:36.117Z,5.900
2023-12-27T09:55:36.244Z,5.700
2023-12-27T09:57:36.221Z,5.800
2023-12-27T09:58:36.245Z,5.700
2023-12-27T09:59:36.146Z,6.300
2023-12-27T10:00:36.867Z,6.300
2023-12-27T10:01:36.045Z,5.700
2023-12-27T10:02:36.234Z,5.600
2023-12-27T10:03:36.803Z,5.500
2023-12-27T10:04:35.862Z,5.000
2023-12-27T10:05:37.105Z,4.600
2023-12-27T10:06:36.327Z,4.700
2023-12-27T10:08:36.504Z,3.900
2023-12-27T10:09:36.722Z,4.800
2023-12-27T10:10:37.330Z,4.400
2023-12-27T10:11:36.177Z,4.100
2023-12-27T10:12:36.183Z,4.500
2023-12-27T10:13:36.064Z,4.500
2023-12-27T10:14:35.839Z,4.600
2023-12-27T10:15:37.506Z,4.400
2023-12-27T10:16:36.411Z,4.000
2023-12-27T10:17:36.350Z,4.200
2023-12-27T10:18:36.955Z,4.100
2023-12-27T10:19:36.533Z,4.000
2023-12-27T10:20:36.711Z,3.600
2023-12-27T10:21:36.868Z,4.000
2023-12-27T10:22:35.962Z,4.100
2023-12-27T10:23:36.845Z,4.300
2023-12-27T10:24:36.647Z,4.600
2023-12-27T10:25:37.064Z,4.100
2023-12-27T10:26:35.955Z,4.100
2023-12-27T10:27:37.122Z,4.500
2023-12-27T10:28:36.136Z,4.300
2023-12-27T10:29:36.201Z,4.400
2023-12-27T10:30:36.790Z,4.100
2023-12-27T10:31:36.667Z,4.000
2023-12-27T10:32:37.074Z,4.100
2023-12-27T10:33:39.814Z,4.400
2023-12-27T10:34:36.468Z,3.700
2023-12-27T10:35:36.695Z,4.300
2023-12-27T10:36:36.806Z,4.000
2023-12-27T10:37:35.779Z,3.800
2023-12-27T10:38:36.876Z,3.800
2023-12-27T10:39:36.033Z,3.600
2023-12-27T10:40:36.043Z,3.900
2023-12-27T10:41:35.960Z,4.400
2023-12-27T10:42:36.163Z,4.300
2023-12-27T10:43:36.270Z,4.300
2023-12-27T10:44:36.126Z,4.200
2023-12-27T10:45:36.183Z,4.300
2023-12-27T10:47:36.154Z,3.800
2023-12-27T10:48:37.124Z,3.400
2023-12-27T10:49:36.700Z,4.100
2023-12-27T10:51:38.351Z,4.000
2023-12-27T10:52:36.455Z,4.500
2023-12-27T10:53:36.257Z,4.200
2023-12-27T10:54:36.530Z,4.500
2023-12-27T10:55:36.556Z,3.800
2023-12-27T10:56:36.593Z,3.600
2023-12-27T10:57:39.451Z,3.900
2023-12-27T10:58:36.442Z,4.200
2023-12-27T11:00:36.928Z,3.600
2023-12-27T11:01:36.493Z,3.500
2023-12-27T11:02:36.769Z,3.700
2023-12-27T11:03:40.413Z,4.000
2023-12-27T11:04:36.882Z,3.800
2023-12-27T11:07:36.064Z,3.400
2023-12-27T11:08:35.954Z,3.900
2023-12-27T11:09:36.268Z,4.100
2023-12-27T11:10:36.350Z,4.500
2023-12-27T11:11:36.427Z,4.400
2023-12-27T11:12:36.522Z,4.100
2023-12-27T11:14:36.359Z,4.100
2023-12-27T11:15:37.257Z,3.700
2023-12-27T11:16:36.195Z,3.900
2023-12-27T11:17:36.036Z,3.800
2023-12-27T11:18:37.461Z,3.800
2023-12-27T11:20:36.010Z,3.300
2023-12-27T11:21:38.801Z,3.000
2023-12-27T11:22:35.950Z,3.100
2023-12-27T11:23:36.838Z,3.400
2023-12-27T11:24:36.953Z,3.600
2023-12-27T11:25:36.120Z,3.400
2023-12-27T11:26:35.966Z,3.200
2023-12-27T11:27:39.132Z,3.600
2023-12-27T11:28:36.074Z,3.400
2023-12-27T11:31:37.399Z,3.700
2023-12-27T11:32:36.789Z,3.400
2023-12-27T11:33:42.346Z,3.000
2023-12-27T11:34:36.515Z,3.800
2023-12-27T11:35:37.017Z,3.600
2023-12-27T11:36:36.282Z,3.500
2023-12-27T11:37:36.439Z,3.600
2023-12-27T11:38:36.387Z,3.900
2023-12-27T11:39:36.462Z,4.400
2023-12-27T11:40:36.937Z,4.500
2023-12-27T11:41:36.102Z,3.300
2023-12-27T11:42:36.490Z,3.500
2023-12-27T11:43:36.542Z,3.400
2023-12-27T11:44:37.616Z,3.100
2023-12-27T11:45:36.797Z,2.700
2023-12-27T11:46:36.776Z,3.700
2023-12-27T11:47:36.979Z,3.800
2023-12-27T11:48:36.900Z,3.900
2023-12-27T11:49:36.340Z,3.100
2023-12-27T11:50:36.459Z,3.300
2023-12-27T11:52:36.247Z,3.100
2023-12-27T11:53:36.088Z,3.100
2023-12-27T11:54:36.015Z,3.300
2023-12-27T11:55:36.092Z,2.500
2023-12-27T11:57:36.947Z,2.900
2023-12-27T11:58:35.895Z,2.900
2023-12-27T11:59:36.734Z,2.600
2023-12-27T12:00:36.747Z,2.900
2023-12-27T12:01:36.905Z,3.400
2023-12-27T12:02:36.725Z,3.400
2023-12-27T12:03:36.774Z,3.000
2023-12-27T12:04:37.386Z,3.400
2023-12-27T12:05:36.542Z,2.900
2023-12-27T12:06:37.117Z,2.800
2023-12-27T12:07:36.252Z,2.800
2023-12-27T12:08:36.187Z,3.100
2023-12-27T12:09:36.320Z,3.300
2023-12-27T12:10:36.565Z,3.200
2023-12-27T12:11:36.506Z,2.900
2023-12-27T12:12:36.890Z,3.000
2023-12-27T12:13:35.940Z,3.500
2023-12-27T12:14:36.891Z,3.400
2023-12-27T12:15:36.837Z,2.600
2023-12-27T12:16:36.561Z,3.200
2023-12-27T12:17:37.233Z,3.500
2023-12-27T12:18:37.921Z,3.700
2023-12-27T12:19:36.718Z,3.500
2023-12-27T12:20:35.944Z,3.300
2023-12-27T12:21:36.942Z,3.200
2023-12-27T12:22:35.965Z,3.200
2023-12-27T12:23:36.175Z,3.300
2023-12-27T12:24:36.651Z,2.900
2023-12-27T12:25:36.078Z,3.100
2023-12-27T12:26:38.384Z,3.100
2023-12-27T12:27:36.902Z,2.600
2023-12-27T12:28:36.093Z,3.300
2023-12-27T12:29:36.192Z,2.900
2023-12-27T12:30:37.011Z,3.300
2023-12-27T12:31:37.097Z,2.900
2023-12-27T12:32:36.517Z,2.900
2023-12-27T12:33:37.770Z,3.300
2023-12-27T12:34:36.237Z,3.100
2023-12-27T12:35:36.538Z,3.500
2023-12-27T12:36:36.618Z,3.100
2023-12-27T12:37:36.651Z,3.200
2023-12-27T12:38:36.501Z,3.500
2023-12-27T12:39:36.543Z,3.400
2023-12-27T12:40:36.922Z,3.700
2023-12-27T12:43:35.929Z,3.400
2023-12-27T12:45:36.451Z,3.200
2023-12-27T12:46:36.494Z,3.400
2023-12-27T12:47:36.522Z,2.800
2023-12-27T12:48:37.732Z,2.700
2023-12-27T12:49:36.582Z,2.500
2023-12-27T12:50:36.965Z,3.000
2023-12-27T12:51:36.152Z,3.000
2023-12-27T12:52:36.164Z,3.200
2023-12-27T12:53:36.147Z,3.000
2023-12-27T12:54:36.489Z,3.100
2023-12-27T12:55:36.473Z,3.200
2023-12-27T12:56:36.403Z,2.800
2023-12-27T12:57:36.267Z,3.300
2023-12-27T12:58:36.391Z,3.300
2023-12-27T12:59:36.761Z,3.400
2023-12-27T13:00:36.443Z,3.300
2023-12-27T13:01:36.892Z,3.800
2023-12-27T13:02:35.867Z,3.300
2023-12-27T13:03:36.319Z,3.000
2023-12-27T13:04:36.491Z,3.100
2023-12-27T13:05:36.834Z,3.200
2023-12-27T13:06:40.680Z,3.200
2023-12-27T13:08:36.405Z,3.300
2023-12-27T13:09:36.640Z,3.400
2023-12-27T13:10:36.585Z,3.500
2023-12-27T13:11:36.423Z,3.700
2023-12-27T13:12:39.693Z,3.200
2023-12-27T13:13:36.444Z,2.500
2023-12-27T13:14:36.264Z,2.800
2023-12-27T13:15:36.256Z,3.400
2023-12-27T13:16:36.264Z,3.100
2023-12-27T13:17:36.921Z,3.300
2023-12-27T13:18:37.779Z,3.300
2023-12-27T13:19:37.324Z,3.300
2023-12-27T13:20:36.233Z,2.600
2023-12-27T13:21:36.435Z,3.000
2023-12-27T13:22:36.432Z,2.600
2023-12-27T13:24:39.522Z,2.600
2023-12-27T13:25:36.868Z,2.900
2023-12-27T13:26:36.804Z,3.200
2023-12-27T13:27:37.025Z,3.100
2023-12-27T13:28:36.040Z,3.100
2023-12-27T13:29:36.043Z,3.000
2023-12-27T13:30:36.930Z,3.100
2023-12-27T13:31:37.167Z,3.200
2023-12-27T13:32:36.415Z,3.100
2023-12-27T13:33:38.037Z,3.400
2023-12-27T13:34:37.230Z,3.500
2023-12-27T13:37:37.011Z,3.300
2023-12-27T13:38:35.989Z,3.200
2023-12-27T13:39:36.174Z,3.200
2023-12-27T13:40:36.191Z,3.100
2023-12-27T13:41:36.066Z,3.200
2023-12-27T13:42:36.217Z,2.900
2023-12-27T13:43:36.216Z,3.200
2023-12-27T13:44:36.132Z,3.100
2023-12-27T13:45:36.500Z,3.100
2023-12-27T13:47:36.486Z,3.200
2023-12-27T13:48:37.708Z,3.900
2023-12-27T13:49:36.463Z,3.400
2023-12-27T13:50:36.586Z,3.200
2023-12-27T13:51:36.694Z,3.100
2023-12-27T13:52:36.745Z,3.200
2023-12-27T13:53:36.665Z,3.100
2023-12-27T13:54:43.211Z,3.300
2023-12-27T13:55:36.725Z,3.300
2023-12-27T13:56:36.719Z,3.200
2023-12-27T13:57:37.154Z,3.200
2023-12-27T13:58:36.172Z,3.400